createdAt,value
2018-12-26T00:02:14.156Z,101435.62
2018-12-26T00:05:09.833Z,101429.86
2018-12-26T00:08:06.472Z,101424.19
2018-12-26T00:11:02.959Z,101426.34
2018-12-26T00:13:59.092Z,101430.88
2018-12-26T00:16:55.698Z,101430.08
2018-12-26T00:19:52.535Z,101427.39
2018-12-26T00:22:49.252Z,101420.95
2018-12-26T00:25:45.660Z,101424.09
2018-12-26T00:28:42.315Z,101417.01
2018-12-26T00:31:39.114Z,101421.48
2018-12-26T00:34:35.140Z,101418.23
2018-12-26T00:37:31.839Z,101415.20
2018-12-26T00:40:28.504Z,101420.30
2018-12-26T00:43:25.435Z,101416.26
2018-12-26T00:46:21.034Z,101414.48
2018-12-26T00:49:18.256Z,101417.66
2018-12-26T00:52:14.769Z,101417.57
2018-12-26T00:55:10.693Z,101420.14
2018-12-26T00:58:07.299Z,101434.86
2018-12-26T01:01:05.306Z,101418.40
2018-12-26T01:04:00.931Z,101424.51
2018-12-26T01:06:56.876Z,101418.19
2018-12-26T01:09:53.691Z,101425.98
2018-12-26T01:12:49.411Z,101431.80
2018-12-26T01:15:45.463Z,101422.78
2018-12-26T01:18:42.360Z,101410.58
2018-12-26T01:21:38.615Z,101405.91
2018-12-26T01:24:34.360Z,101412.13
2018-12-26T01:27:35.232Z,101413.72
2018-12-26T01:30:31.907Z,101413.59
2018-12-26T01:33:28.055Z,101412.18
2018-12-26T01:36:24.757Z,101401.43
2018-12-26T01:39:20.852Z,101399.80
2018-12-26T01:42:17.546Z,101404.45
2018-12-26T01:45:13.880Z,101402.83
2018-12-26T01:48:10.878Z,101396.83
2018-12-26T01:51:06.509Z,101396.56
2018-12-26T01:54:07.313Z,101401.64
2018-12-26T01:57:03.868Z,101403.08
2018-12-26T01:59:59.936Z,101407.98
2018-12-26T02:02:56.860Z,101413.99
2018-12-26T02:05:53.496Z,101408.22
2018-12-26T02:08:50.069Z,101403.30
2018-12-26T02:11:46.910Z,101410.72
2018-12-26T02:14:43.398Z,101414.55
2018-12-26T02:17:43.076Z,101411.75
2018-12-26T02:20:39.680Z,101413.96
2018-12-26T02:23:36.442Z,101417.67
2018-12-26T02:26:36.544Z,101416.55
2018-12-26T02:29:33.315Z,101409.02
2018-12-26T02:32:30.436Z,101409.50
2018-12-26T02:35:27.330Z,101409.09
2018-12-26T02:38:23.927Z,101403.76
2018-12-26T02:41:20.558Z,101402.01
2018-12-26T02:44:16.945Z,101403.27
2018-12-26T02:47:12.858Z,101398.63
2018-12-26T02:50:10.175Z,101388.65
2018-12-26T02:53:07.164Z,101394.19
2018-12-26T02:56:03.132Z,101390.17
2018-12-26T02:58:58.639Z,101390.92
2018-12-26T03:01:55.324Z,101376.14
2018-12-26T03:04:51.783Z,101376.27
2018-12-26T03:07:47.687Z,101383.98
2018-12-26T03:10:43.200Z,101385.24
2018-12-26T03:13:39.012Z,101387.43
2018-12-26T03:16:35.020Z,101382.92
2018-12-26T03:19:33.076Z,101380.72
2018-12-26T03:22:42.870Z,101388.65
2018-12-26T03:25:41.011Z,101389.14
2018-12-26T03:28:37.690Z,101385.12
2018-12-26T03:31:34.313Z,101393.95
2018-12-26T03:34:30.748Z,101391.84
2018-12-26T03:37:27.229Z,101383.20
2018-12-26T03:40:24.374Z,101375.58
2018-12-26T03:43:21.898Z,101372.77
2018-12-26T03:46:18.523Z,101366.99
2018-12-26T03:49:14.140Z,101370.22
2018-12-26T03:52:10.933Z,101360.16
2018-12-26T03:55:25.830Z,101363.42
2018-12-26T03:58:22.471Z,101352.67
2018-12-26T04:01:19.207Z,101346.01
2018-12-26T04:04:16.133Z,101340.09
2018-12-26T04:07:12.774Z,101353.51
2018-12-26T04:10:09.299Z,101355.54
2018-12-26T04:13:05.783Z,101367.97
2018-12-26T04:16:02.698Z,101361.01
2018-12-26T04:19:01.727Z,101367.96
2018-12-26T04:21:58.571Z,101366.41
2018-12-26T04:24:55.195Z,101362.45
2018-12-26T04:27:50.960Z,101364.11
2018-12-26T04:30:47.369Z,101364.38
2018-12-26T04:33:43.542Z,101371.05
2018-12-26T04:36:40.099Z,101363.63
2018-12-26T04:39:36.295Z,101354.28
2018-12-26T04:42:33.088Z,101356.55
2018-12-26T04:45:29.918Z,101360.62
2018-12-26T04:48:26.545Z,101368.28
2018-12-26T04:51:22.108Z,101378.56
2018-12-26T04:54:18.853Z,101375.36
2018-12-26T04:57:24.522Z,101380.33
2018-12-26T05:00:12.814Z,101388.56
2018-12-26T05:03:09.070Z,101388.91
2018-12-26T05:06:04.901Z,101393.21
2018-12-26T05:09:00.898Z,101381.29
2018-12-26T05:11:58.855Z,101393.97
2018-12-26T05:14:55.739Z,101387.58
2018-12-26T05:17:54.268Z,101388.38
2018-12-26T05:20:52.531Z,101375.30
2018-12-26T05:23:48.657Z,101364.23
2018-12-26T05:26:45.283Z,101367.05
2018-12-26T05:29:42.022Z,101354.95
2018-12-26T05:32:38.411Z,101347.50
2018-12-26T05:35:35.122Z,101349.34
2018-12-26T05:38:31.664Z,101351.61
2018-12-26T05:41:27.289Z,101344.46
2018-12-26T05:44:23.902Z,101343.98
2018-12-26T05:47:20.674Z,101335.81
2018-12-26T05:50:17.597Z,101337.02
2018-12-26T05:53:14.064Z,101342.32
2018-12-26T05:56:11.481Z,101346.71
2018-12-26T05:59:11.751Z,101331.64
2018-12-26T06:02:07.827Z,101339.56
2018-12-26T06:05:04.317Z,101344.16
2018-12-26T06:08:01.073Z,101324.56
2018-12-26T06:10:57.493Z,101321.30
2018-12-26T06:13:53.930Z,101312.01
2018-12-26T06:16:49.555Z,101326.16
2018-12-26T06:19:46.391Z,101319.17
2018-12-26T06:22:42.529Z,101315.29
2018-12-26T06:25:38.835Z,101311.47
2018-12-26T06:28:35.668Z,101300.69
2018-12-26T06:31:31.984Z,101290.58
2018-12-26T06:34:28.114Z,101284.94
2018-12-26T06:37:23.786Z,101293.23
2018-12-26T06:40:20.459Z,101287.37
2018-12-26T06:43:16.527Z,101296.48
2018-12-26T06:46:13.284Z,101299.39
2018-12-26T06:49:09.709Z,101302.67
2018-12-26T06:52:08.262Z,101296.88
2018-12-26T06:55:05.054Z,101303.04
2018-12-26T06:58:01.619Z,101306.89
2018-12-26T07:00:58.106Z,101311.19
2018-12-26T07:03:56.260Z,101318.58
2018-12-26T07:06:54.093Z,101317.81
2018-12-26T07:09:50.541Z,101331.13
2018-12-26T07:12:46.947Z,101335.16
2018-12-26T07:15:42.787Z,101331.77
2018-12-26T07:18:38.566Z,101328.80
2018-12-26T07:21:33.985Z,101323.34
2018-12-26T07:24:31.832Z,101336.89
2018-12-26T07:27:28.872Z,101344.64
2018-12-26T07:30:25.321Z,101339.55
2018-12-26T07:33:21.986Z,101351.00
2018-12-26T07:36:18.711Z,101350.08
2018-12-26T07:39:15.700Z,101351.73
2018-12-26T07:42:12.237Z,101352.83
2018-12-26T07:45:11.404Z,101355.25
2018-12-26T07:48:07.316Z,101364.14
2018-12-26T07:51:03.782Z,101365.68
2018-12-26T07:54:03.172Z,101362.86
2018-12-26T07:56:59.901Z,101354.02
2018-12-26T07:59:56.793Z,101351.41
2018-12-26T08:02:53.333Z,101350.17
2018-12-26T08:05:48.998Z,101353.13
2018-12-26T08:08:44.503Z,101346.70
2018-12-26T08:11:41.241Z,101349.59
2018-12-26T08:14:39.249Z,101345.72
2018-12-26T08:17:39.357Z,101341.75
2018-12-26T08:20:35.064Z,101341.30
2018-12-26T08:23:30.996Z,101351.26
2018-12-26T08:26:27.734Z,101355.57
2018-12-26T08:29:24.422Z,101350.78
2018-12-26T08:32:20.547Z,101358.39
2018-12-26T08:35:16.146Z,101367.50
2018-12-26T08:37:56.092Z,101356.73
2018-12-26T08:40:35.825Z,101361.83
2018-12-26T08:43:15.825Z,101353.17
2018-12-26T08:45:55.615Z,101351.35
2018-12-26T08:48:35.463Z,101352.18
2018-12-26T08:51:15.358Z,101347.36
2018-12-26T08:53:55.468Z,101350.27
2018-12-26T08:56:35.658Z,101355.98
2018-12-26T08:59:15.390Z,101356.80
2018-12-26T09:01:55.314Z,101359.17
2018-12-26T09:04:35.174Z,101372.00
2018-12-26T09:07:14.847Z,101361.95
2018-12-26T09:09:54.776Z,101363.93
2018-12-26T09:12:35.956Z,101367.90
2018-12-26T09:15:15.895Z,101376.70
2018-12-26T09:17:56.012Z,101376.70
2018-12-26T09:20:35.941Z,101357.35
2018-12-26T09:23:15.629Z,101371.17
2018-12-26T09:26:03.097Z,101382.42
2018-12-26T09:28:45.156Z,101384.34
2018-12-26T09:31:25.024Z,101378.33
2018-12-26T09:34:04.835Z,101378.11
2018-12-26T09:36:44.803Z,101367.56
2018-12-26T09:39:24.553Z,101355.32
2018-12-26T09:42:04.518Z,101359.41
2018-12-26T09:44:54.311Z,101351.31
2018-12-26T09:47:28.898Z,101354.38
2018-12-26T09:50:08.931Z,101354.03
2018-12-26T09:52:48.904Z,101356.23
2018-12-26T09:55:29.956Z,101342.66
2018-12-26T09:58:09.724Z,101352.48
2018-12-26T10:00:49.639Z,101356.35
2018-12-26T10:03:34.855Z,101366.62
2018-12-26T10:06:14.572Z,101370.16
2018-12-26T10:08:54.279Z,101370.20
2018-12-26T10:11:33.979Z,101380.62
2018-12-26T10:14:13.749Z,101372.09
2018-12-26T10:16:53.460Z,101376.00
2018-12-26T10:19:33.713Z,101372.41
2018-12-26T10:22:16.572Z,101367.81
2018-12-26T10:24:56.398Z,101362.66
2018-12-26T10:27:36.104Z,101355.42
2018-12-26T10:30:15.800Z,101352.61
2018-12-26T10:32:55.631Z,101352.61
2018-12-26T10:35:35.279Z,101350.94
2018-12-26T10:38:15.287Z,101354.31
2018-12-26T10:40:55.093Z,101342.97
2018-12-26T10:43:35.070Z,101344.06
2018-12-26T10:46:16.202Z,101343.95
2018-12-26T10:48:55.928Z,101342.34
2018-12-26T10:51:35.723Z,101339.05
2018-12-26T10:54:15.493Z,101325.37
2018-12-26T10:56:55.492Z,101316.02
2018-12-26T10:59:35.627Z,101321.02
2018-12-26T11:02:15.568Z,101321.91
2018-12-26T11:04:55.450Z,101322.73
2018-12-26T11:07:35.931Z,101322.38
2018-12-26T11:10:15.998Z,101306.48
2018-12-26T11:12:56.155Z,101309.39
2018-12-26T11:15:37.860Z,101307.39
2018-12-26T11:18:17.744Z,101298.88
2018-12-26T11:20:58.122Z,101301.41
2018-12-26T11:23:39.004Z,101300.49
2018-12-26T11:26:18.803Z,101295.95
2018-12-26T11:29:03.629Z,101299.05
2018-12-26T11:31:50.627Z,101293.26
2018-12-26T11:34:30.359Z,101290.98
2018-12-26T11:37:10.431Z,101303.84
2018-12-26T11:39:51.605Z,101297.88
2018-12-26T11:42:32.064Z,101296.06
2018-12-26T11:45:31.372Z,101290.22
2018-12-26T11:48:11.808Z,101282.64
2018-12-26T11:50:51.533Z,101279.00
2018-12-26T11:53:31.545Z,101281.02
2018-12-26T11:56:11.358Z,101281.45
2018-12-26T11:58:51.612Z,101283.24
2018-12-26T12:01:31.479Z,101270.79
2018-12-26T12:04:12.207Z,101267.09
2018-12-26T12:06:52.991Z,101266.43
2018-12-26T12:09:35.400Z,101259.85
2018-12-26T12:12:15.383Z,101259.41
2018-12-26T12:14:55.183Z,101267.87
2018-12-26T12:17:34.998Z,101264.53
2018-12-26T12:20:15.494Z,101263.92
2018-12-26T12:22:55.237Z,101265.84
2018-12-26T12:25:36.517Z,101272.78
2018-12-26T12:28:16.204Z,101273.41
2018-12-26T12:30:56.063Z,101278.88
2018-12-26T12:33:35.918Z,101280.08
2018-12-26T12:36:16.162Z,101282.47
2018-12-26T12:38:56.162Z,101268.00
2018-12-26T12:41:38.273Z,101267.84
2018-12-26T12:44:18.057Z,101268.17
2018-12-26T12:46:58.368Z,101261.47
2018-12-26T12:49:38.660Z,101267.16
2018-12-26T12:52:18.394Z,101273.97
2018-12-26T12:54:58.159Z,101270.42
2018-12-26T12:57:40.735Z,101261.91
2018-12-26T13:00:20.459Z,101258.94
2018-12-26T13:03:01.684Z,101256.86
2018-12-26T13:05:41.398Z,101259.41
2018-12-26T13:08:23.648Z,101263.23
2018-12-26T13:11:03.349Z,101264.73
2018-12-26T13:13:43.472Z,101267.70
2018-12-26T13:16:23.507Z,101265.98
2018-12-26T13:19:03.228Z,101266.75
2018-12-26T13:21:43.407Z,101263.31
2018-12-26T13:24:25.321Z,101266.80
2018-12-26T13:27:05.251Z,101268.44
2018-12-26T13:29:53.581Z,101271.84
2018-12-26T13:32:30.660Z,101271.05
2018-12-26T13:35:11.564Z,101278.72
2018-12-26T13:37:52.867Z,101279.78
2018-12-26T13:40:32.709Z,101275.38
2018-12-26T13:43:12.802Z,101280.72
2018-12-26T13:45:54.223Z,101283.61
2018-12-26T13:48:33.897Z,101290.78
2018-12-26T13:51:13.697Z,101291.98
2018-12-26T13:53:53.545Z,101286.77
2018-12-26T13:56:33.735Z,101284.14
2018-12-26T13:59:13.525Z,101288.16
2018-12-26T14:01:53.723Z,101288.38
2018-12-26T14:04:33.833Z,101290.52
2018-12-26T14:07:13.568Z,101294.64
2018-12-26T14:09:53.415Z,101295.20
2018-12-26T14:12:33.422Z,101284.03
2018-12-26T14:15:15.401Z,101291.89
2018-12-26T14:17:55.292Z,101294.56
2018-12-26T14:20:35.307Z,101285.98
2018-12-26T14:23:15.529Z,101281.47
2018-12-26T14:25:57.031Z,101286.23
2018-12-26T14:28:37.912Z,101284.36
2018-12-26T14:31:17.666Z,101278.72
2018-12-26T14:33:57.520Z,101280.56
2018-12-26T14:36:37.247Z,101283.28
2018-12-26T14:39:17.571Z,101286.33
2018-12-26T14:41:57.809Z,101283.77
2018-12-26T14:44:38.206Z,101276.91
2018-12-26T14:47:24.484Z,101277.45
2018-12-26T14:50:04.842Z,101281.16
2018-12-26T14:52:44.761Z,101285.42
2018-12-26T14:55:24.785Z,101274.81
2018-12-26T14:58:04.519Z,101276.48
2018-12-26T15:00:44.491Z,101273.63
2018-12-26T15:03:24.131Z,101276.86
2018-12-26T15:06:04.333Z,101275.95
2018-12-26T15:08:45.582Z,101273.27
2018-12-26T15:11:25.614Z,101269.75
2018-12-26T15:14:05.362Z,101266.39
2018-12-26T15:16:45.427Z,101267.80
2018-12-26T15:19:25.200Z,101272.03
2018-12-26T15:22:06.570Z,101277.48
2018-12-26T15:24:46.372Z,101276.26
2018-12-26T15:27:26.221Z,101267.69
2018-12-26T15:30:06.669Z,101268.32
2018-12-26T15:32:58.483Z,101267.92
2018-12-26T15:35:38.334Z,101262.34
2018-12-26T15:38:18.282Z,101269.12
2018-12-26T15:40:58.099Z,101258.31
2018-12-26T15:43:39.002Z,101264.59
2018-12-26T15:46:18.780Z,101262.55
2018-12-26T15:48:58.615Z,101263.45
2018-12-26T15:51:38.425Z,101265.11
2018-12-26T15:54:18.135Z,101259.00
2018-12-26T15:56:58.189Z,101277.36
2018-12-26T15:59:37.905Z,101271.25
2018-12-26T16:02:17.873Z,101264.34
2018-12-26T16:04:57.627Z,101274.14
2018-12-26T16:07:56.808Z,101277.77
2018-12-26T16:10:38.623Z,101278.36
2018-12-26T16:13:18.578Z,101270.55
2018-12-26T16:15:58.342Z,101275.75
2018-12-26T16:18:38.343Z,101278.95
2018-12-26T16:21:21.447Z,101278.20
2018-12-26T16:24:01.315Z,101271.92
2018-12-26T16:26:41.166Z,101271.05
2018-12-26T16:29:21.111Z,101269.95
2018-12-26T16:32:01.345Z,101262.51
2018-12-26T16:34:41.169Z,101272.77
2018-12-26T16:37:21.151Z,101276.66
2018-12-26T16:40:01.346Z,101278.73
2018-12-26T16:42:41.147Z,101277.01
2018-12-26T16:45:21.693Z,101276.68
2018-12-26T16:48:05.812Z,101284.54
2018-12-26T16:50:45.642Z,101287.83
2018-12-26T16:53:25.457Z,101288.11
2018-12-26T16:56:05.608Z,101295.48
2018-12-26T16:58:45.388Z,101293.67
2018-12-26T17:01:25.109Z,101298.22
2018-12-26T17:04:04.843Z,101301.38
2018-12-26T17:06:44.699Z,101291.42
2018-12-26T17:09:24.424Z,101293.38
2018-12-26T17:12:04.411Z,101291.03
2018-12-26T17:14:44.223Z,101295.35
2018-12-26T17:17:24.008Z,101299.91
2018-12-26T17:20:03.911Z,101313.59
2018-12-26T17:22:44.119Z,101307.84
2018-12-26T17:25:25.380Z,101306.02
2018-12-26T17:28:05.401Z,101306.41
2018-12-26T17:30:46.326Z,101309.85
2018-12-26T17:33:26.154Z,101312.66
2018-12-26T17:36:06.172Z,101305.20
2018-12-26T17:38:46.152Z,101310.66
2018-12-26T17:41:26.348Z,101312.33
2018-12-26T17:44:06.740Z,101314.41
2018-12-26T17:46:46.491Z,101317.63
2018-12-26T17:49:26.417Z,101323.65
2018-12-26T17:52:06.509Z,101326.27
2018-12-26T17:55:26.274Z,101318.25
2018-12-26T17:58:05.999Z,101327.59
2018-12-26T18:01:22.797Z,101321.67
2018-12-26T18:04:02.533Z,101327.95
2018-12-26T18:06:46.780Z,101323.52
2018-12-26T18:09:26.738Z,101330.59
2018-12-26T18:12:11.699Z,101334.98
2018-12-26T18:14:48.107Z,101329.67
2018-12-26T18:17:28.448Z,101323.08
2018-12-26T18:20:13.221Z,101318.19
2018-12-26T18:22:53.395Z,101323.03
2018-12-26T18:25:33.123Z,101329.02
2018-12-26T18:28:13.066Z,101331.70
2018-12-26T18:30:52.847Z,101329.48
2018-12-26T18:33:33.102Z,101336.73
2018-12-26T18:36:13.826Z,101337.12
2018-12-26T18:38:54.620Z,101337.33
2018-12-26T18:41:34.902Z,101335.22
2018-12-26T18:44:33.968Z,101343.73
2018-12-26T18:47:13.848Z,101337.16
2018-12-26T18:49:57.520Z,101335.59
2018-12-26T18:52:37.372Z,101337.11
2018-12-26T18:55:17.035Z,101334.58
2018-12-26T18:57:59.977Z,101347.98
2018-12-26T19:00:39.933Z,101348.28
2018-12-26T19:03:19.999Z,101350.89
2018-12-26T19:06:01.304Z,101346.14
2018-12-26T19:08:43.668Z,101349.71
2018-12-26T19:11:23.518Z,101355.12
2018-12-26T19:14:04.584Z,101353.20
2018-12-26T19:16:44.430Z,101346.23
2018-12-26T19:19:24.407Z,101347.86
2018-12-26T19:22:04.596Z,101346.85
2018-12-26T19:24:44.283Z,101344.37
2018-12-26T19:27:24.054Z,101339.30
2018-12-26T19:30:09.823Z,101338.98
2018-12-26T19:32:49.545Z,101341.57
2018-12-26T19:35:29.581Z,101347.34
2018-12-26T19:38:19.191Z,101341.53
2018-12-26T19:40:53.246Z,101345.00
2018-12-26T19:43:33.006Z,101344.00
2018-12-26T19:46:13.029Z,101340.84
2018-12-26T19:48:54.041Z,101350.42
2018-12-26T19:51:34.040Z,101341.66
2018-12-26T19:54:14.411Z,101351.27
2018-12-26T19:56:54.099Z,101354.91
2018-12-26T19:59:33.797Z,101350.59
2018-12-26T20:02:13.542Z,101353.13
2018-12-26T20:04:53.330Z,101352.11
2018-12-26T20:07:33.070Z,101349.11
2018-12-26T20:10:12.877Z,101345.16
2018-12-26T20:12:52.580Z,101358.34
2018-12-26T20:15:32.426Z,101350.73
2018-12-26T20:18:13.112Z,101353.22
2018-12-26T20:20:52.790Z,101358.59
2018-12-26T20:23:32.552Z,101355.36
2018-12-26T20:26:12.345Z,101350.50
2018-12-26T20:28:52.275Z,101350.00
2018-12-26T20:31:34.425Z,101349.01
2018-12-26T20:34:17.102Z,101351.75
2018-12-26T20:36:56.979Z,101346.22
2018-12-26T20:39:39.346Z,101343.61
2018-12-26T20:42:21.970Z,101344.12
2018-12-26T20:45:10.139Z,101339.29
2018-12-26T20:47:50.003Z,101350.23
2018-12-26T20:50:30.170Z,101341.47
2018-12-26T20:53:10.072Z,101336.90
2018-12-26T20:55:51.005Z,101340.34
2018-12-26T20:58:32.108Z,101337.23
2018-12-26T21:01:12.266Z,101337.77
2018-12-26T21:03:52.190Z,101339.25
2018-12-26T21:06:32.049Z,101331.98
2018-12-26T21:09:11.872Z,101330.44
2018-12-26T21:11:52.029Z,101329.59
2018-12-26T21:14:32.418Z,101329.59
2018-12-26T21:17:12.443Z,101326.11
2018-12-26T21:19:52.318Z,101327.84
2018-12-26T21:22:34.877Z,101326.50
2018-12-26T21:25:14.669Z,101325.61
2018-12-26T21:27:54.963Z,101320.79
2018-12-26T21:30:34.742Z,101319.22
2018-12-26T21:33:14.964Z,101320.50
2018-12-26T21:35:55.812Z,101312.98
2018-12-26T21:38:35.760Z,101299.55
2018-12-26T21:41:15.424Z,101306.61
2018-12-26T21:43:55.850Z,101314.52
2018-12-26T21:46:36.027Z,101316.87
2018-12-26T21:49:16.553Z,101308.52
2018-12-26T21:51:56.276Z,101316.52
2018-12-26T21:54:37.192Z,101312.80
2018-12-26T21:57:17.469Z,101313.45
2018-12-26T21:59:59.748Z,101313.61
2018-12-26T22:02:39.587Z,101312.10
2018-12-26T22:05:19.543Z,101319.94
2018-12-26T22:07:59.808Z,101315.98
2018-12-26T22:10:39.950Z,101318.91
2018-12-26T22:13:19.803Z,101319.59
2018-12-26T22:15:59.714Z,101313.35
2018-12-26T22:18:40.825Z,101313.22
2018-12-26T22:21:20.607Z,101311.28
2018-12-26T22:24:03.218Z,101312.38
2018-12-26T22:26:43.599Z,101312.69
2018-12-26T22:29:23.704Z,101311.49
2018-12-26T22:32:03.613Z,101311.74
2018-12-26T22:34:43.276Z,101309.73
2018-12-26T22:37:23.579Z,101314.54
2018-12-26T22:40:03.497Z,101305.76
2018-12-26T22:42:44.544Z,101307.34
2018-12-26T22:45:24.211Z,101307.98
2018-12-26T22:48:04.215Z,101304.16
2018-12-26T22:50:43.902Z,101309.66
2018-12-26T22:53:23.638Z,101307.73
2018-12-26T22:56:03.629Z,101310.11
2018-12-26T22:58:45.269Z,101304.42
2018-12-26T23:01:25.104Z,101307.83
2018-12-26T23:04:05.224Z,101306.57
2018-12-26T23:06:45.127Z,101303.27
2018-12-26T23:09:25.025Z,101306.78
2018-12-26T23:12:05.973Z,101304.71
2018-12-26T23:14:46.045Z,101302.07
2018-12-26T23:17:27.076Z,101305.13
2018-12-26T23:20:07.256Z,101307.97
2018-12-26T23:22:47.103Z,101308.81
2018-12-26T23:25:26.778Z,101311.49
2018-12-26T23:28:06.812Z,101305.19
2018-12-26T23:30:46.585Z,101307.64
2018-12-26T23:33:30.287Z,101309.17
2018-12-26T23:36:10.318Z,101305.06
2018-12-26T23:38:52.445Z,101304.89
2018-12-26T23:41:33.319Z,101298.09
2018-12-26T23:44:14.586Z,101303.84
2018-12-26T23:46:54.638Z,101306.45
2018-12-26T23:49:35.857Z,101308.03
2018-12-26T23:52:15.738Z,101308.02
2018-12-26T23:54:55.461Z,101308.84
2018-12-26T23:57:35.330Z,101305.08
